Molokai Airport Kaunakakai US
ICAO: PHMK
IATA:
Category: Medium
Scheduled Services:

Elevation: 454 ft
TransAlt. 18000 ft.

Airport Communications:
ATIS:128.2
HONOLULU CNTR:124.1
CTAF:125.7
GND:121.9
HONOLULU RDO:116.1
TWR:125.7

PHMK Zoom In..

If you have problems with the map follow the link
https://www.worldairports.se/pages/airport.php?
ICAO=PHMK

Runways:

(A) RW 05 length 4494 ft width 100 ft
---- / hdg 49

(B) RW 17 length 3118 ft width 100 ft
---- / hdg 169

(C) RW 23 length 4494 ft width 100 ft
---- / hdg 229

(D) RW 35 length 3118 ft width 100 ft
---- / hdg 349

Location; PHMK
Day. 21 / Time. 17.54 Zulu
* Altimeter: 29.97
* Temperature: 27° c. 80.6°f.
* Wind from: 050° Speed 06 kn.
Dewpoint: 22° c.
Visibility: 10 Statute Miles.
Clouds: Few 1800 ft.

PHMK 211754Z 05006KT 10SM FEW018 27/22 A2997 RMK AO2 SLP149 60002 T02670222 10267 20244 53014


Wind From 050°
Speed 06 kn.

 
 
jpsmedia.com for Web Design worldairports.se 2018   terms of use